Time;durP1;ratioP1;P1;durP2;ratioP2;P2;SDS_P1;SDS_P2;PMS_P1;PMS_P2;Temp;Humidity;BMP_temperature;BMP_pressure;BME280_temperature;BME280_humidity;BME280_pressure;Samples;Min_cycle;Max_cycle;Signal;HPM_P1;HPM_P2
2020/12/06 00:01:36;;;;;;;21.40;15.81;;;0.90;99.90;;;4.67;91.25;100137.62;1698846;75;24441;-74
2020/12/06 00:03:53;;;;;;;20.39;15.32;;;0.70;99.90;;;4.60;91.25;100134.44;1692163;75;24449;-76
2020/12/06 00:06:09;;;;;;;21.75;15.58;;;0.70;99.90;;;4.58;91.48;100132.27;1691685;75;24687;-74
2020/12/06 00:08:25;;;;;;;23.16;16.33;;;0.50;99.90;;;4.62;91.92;100135.34;1694018;75;24880;-75
2020/12/06 00:10:41;;;;;;;21.75;15.97;;;0.90;99.90;;;4.66;92.39;100139.76;1695375;75;24441;-74
2020/12/06 00:12:57;;;;;;;23.01;16.89;;;0.60;99.90;;;4.64;92.63;100148.75;1694449;75;24548;-76
2020/12/06 00:15:14;;;;;;;22.48;16.75;;;0.70;99.90;;;4.69;92.75;100152.72;1700014;75;24571;-75
2020/12/06 00:17:31;;;;;;;25.06;17.31;;;0.80;99.90;;;4.64;93.01;100151.73;1701512;75;24453;-76
2020/12/06 00:19:48;;;;;;;24.27;17.94;;;0.60;99.90;;;4.53;92.37;100151.91;1698612;75;24891;-75
2020/12/06 00:22:06;;;;;;;25.06;18.30;;;0.70;99.90;;;4.65;92.61;100137.58;1698135;75;24482;-76
2020/12/06 00:24:24;;;;;;;27.94;18.60;;;0.50;99.90;;;4.66;93.37;100129.00;1692368;75;24947;-75
2020/12/06 00:26:44;;;;;;;24.09;17.89;;;0.70;99.90;;;4.63;93.47;100121.64;1698635;75;25038;-76
2020/12/06 00:29:04;;;;;;;21.90;17.00;;;0.50;99.90;;;5.15;91.75;100116.75;1690606;75;24422;-74
2020/12/06 00:31:20;;;;;;;23.80;17.60;;;0.70;99.90;;;4.79;92.21;100123.70;1697145;75;25748;-75
2020/12/06 00:33:36;;;;;;;25.52;18.11;;;0.70;99.90;;;4.64;93.26;100144.88;1683675;75;25020;-75
2020/12/06 00:35:52;;;;;;;24.61;18.03;;;;;;;4.60;93.55;100139.19;1689834;75;24387;-75
2020/12/06 00:38:10;;;;;;;25.47;18.66;;;0.40;99.90;;;4.80;93.84;100131.02;1698774;75;25130;-76
2020/12/06 00:40:26;;;;;;;21.54;17.77;;;0.70;99.90;;;4.61;94.26;100128.47;1690829;75;24481;-75
2020/12/06 00:42:42;;;;;;;25.30;17.94;;;0.60;99.90;;;4.83;93.96;100119.48;1701137;75;24696;-74
2020/12/06 00:44:58;;;;;;;24.73;18.38;;;;;;;4.77;93.67;100115.48;1689877;75;24508;-76
2020/12/06 00:47:14;;;;;;;22.75;17.32;;;0.70;99.90;;;4.86;93.91;100119.14;1690315;75;24861;-74
2020/12/06 00:49:32;;;;;;;23.42;18.64;;;0.70;99.90;;;4.59;94.06;100115.95;1690565;75;24941;-77
2020/12/06 00:51:53;;;;;;;25.48;19.12;;;;;;;4.62;94.25;100108.28;1703715;75;24521;-76
2020/12/06 00:54:09;;;;;;;24.36;18.69;;;0.40;99.90;;;4.91;94.28;100102.46;1699085;75;24480;-74
2020/12/06 00:56:26;;;;;;;24.32;18.05;;;0.60;99.90;;;4.64;93.99;100100.17;1699506;75;24755;-75
2020/12/06 00:58:42;;;;;;;24.48;17.80;;;0.70;99.90;;;4.59;93.99;100112.08;1696496;75;24517;-75
2020/12/06 01:00:58;;;;;;;24.15;18.42;;;0.60;99.90;;;4.50;93.83;100116.59;1688993;75;24485;-77
2020/12/06 01:03:14;;;;;;;24.79;17.96;;;0.70;99.90;;;4.96;93.11;100115.92;1691825;75;24473;-73
2020/12/06 01:05:30;;;;;;;24.84;17.44;;;0.60;99.90;;;4.69;92.51;100108.44;1684190;75;24525;-76
2020/12/06 01:07:47;;;;;;;23.23;17.75;;;0.50;99.90;;;4.37;92.85;100108.16;1691081;75;24441;-76
2020/12/06 01:10:04;;;;;;;22.52;16.81;;;0.40;99.90;;;4.40;93.15;100108.63;1698318;75;24570;-76
2020/12/06 01:12:23;;;;;;;22.68;17.35;;;0.40;99.90;;;4.40;93.25;100109.52;1694183;75;24552;-75
2020/12/06 01:14:42;;;;;;;23.69;17.76;;;0.60;99.90;;;4.38;93.35;100107.31;1691483;75;24489;-74
2020/12/06 01:16:59;;;;;;;24.70;18.51;;;0.30;99.90;;;4.39;93.58;100116.77;1693544;75;24915;-76
2020/12/06 01:19:16;;;;;;;23.60;18.12;;;0.50;99.90;;;4.40;93.58;100117.66;1680645;75;24445;-74
2020/12/06 01:21:32;;;;;;;25.60;18.66;;;0.40;99.90;;;4.34;93.52;100121.38;1687317;75;24437;-75
2020/12/06 01:23:50;;;;;;;22.26;17.65;;;0.30;99.90;;;4.37;93.75;100121.45;1698250;75;24513;-76
2020/12/06 01:26:08;;;;;;;25.00;18.70;;;0.20;99.90;;;4.27;93.55;100124.22;1694154;75;24906;-75
2020/12/06 01:28:25;;;;;;;25.23;18.46;;;0.30;99.90;;;4.20;92.80;100133.95;1687399;75;24954;-74
2020/12/06 01:30:46;;;;;;;25.21;18.83;;;0.20;99.90;;;4.16;92.31;100133.81;1698760;75;24442;-75
2020/12/06 01:33:06;;;;;;;24.77;18.60;;;0.30;99.90;;;4.04;91.58;100136.09;1695333;75;24527;-74
2020/12/06 01:35:21;;;;;;;25.37;18.90;;;;;;;3.98;91.35;100134.66;1693257;75;24882;-76
2020/12/06 01:37:39;;;;;;;23.96;18.85;;;0.20;99.90;;;4.24;91.42;100138.33;1700161;75;24969;-75
2020/12/06 01:39:57;;;;;;;23.87;18.88;;;0.20;99.90;;;3.90;91.55;100140.91;1699789;75;24878;-75
2020/12/06 01:42:16;;;;;;;25.26;19.55;;;0.20;99.90;;;3.77;91.24;100128.55;1697101;75;25023;-74
2020/12/06 01:44:35;;;;;;;23.19;19.07;;;0.30;99.90;;;3.77;91.43;100139.25;1684048;75;24445;-75
2020/12/06 01:46:53;;;;;;;28.17;19.28;;;0.00;99.90;;;3.78;91.39;100139.29;1663468;77;24534;-75
2020/12/06 01:49:10;;;;;;;28.11;19.38;;;0.30;99.90;;;3.85;92.06;100136.05;1694594;75;24449;-76
2020/12/06 01:51:28;;;;;;;28.98;20.80;;;0.10;99.90;;;3.85;92.46;100133.48;1699117;75;24987;-74
2020/12/06 01:53:45;;;;;;;28.45;21.01;;;0.20;99.90;;;3.96;93.29;100133.74;1696621;75;24959;-75
2020/12/06 01:56:04;;;;;;;27.74;20.97;;;0.30;99.90;;;4.09;93.52;100136.68;1691823;75;24536;-74
2020/12/06 01:58:22;;;;;;;26.92;19.78;;;0.00;99.90;;;4.05;93.42;100141.28;1704714;74;24519;-75
2020/12/06 02:00:39;;;;;;;28.38;20.45;;;0.30;99.90;;;3.88;92.57;100133.97;1704583;75;24531;-76
2020/12/06 02:02:56;;;;;;;27.49;21.13;;;;;;;3.88;92.40;100127.52;1706203;74;24501;-75
2020/12/06 02:05:12;;;;;;;27.28;20.10;;;0.20;99.90;;;4.04;92.12;100133.52;1699726;74;24989;-76
2020/12/06 02:07:32;;;;;;;27.63;20.76;;;0.20;99.90;;;3.87;91.57;100136.09;1697059;75;24528;-74
2020/12/06 02:09:49;;;;;;;26.15;20.28;;;0.30;99.90;;;3.92;92.26;100128.08;1698507;74;24453;-75
2020/12/06 02:12:09;;;;;;;25.68;19.48;;;0.30;99.90;;;4.17;91.42;100127.41;1710967;74;24428;-75
2020/12/06 02:14:27;;;;;;;27.72;20.49;;;0.20;99.90;;;4.01;90.83;100127.01;1700389;74;24440;-75
2020/12/06 02:16:44;;;;;;;26.36;19.66;;;0.30;99.90;;;3.89;91.31;100126.27;1704078;74;24410;-76
2020/12/06 02:19:02;;;;;;;27.83;19.80;;;0.10;99.90;;;3.98;91.32;100119.20;1708994;74;24453;-76
2020/12/06 02:21:19;;;;;;;26.66;19.96;;;0.50;99.90;;;3.94;90.63;100122.52;1703316;75;24465;-74
2020/12/06 02:23:41;;;;;;;26.62;19.31;;;0.30;99.90;;;3.95;90.50;100132.02;1703520;75;24463;-75
2020/12/06 02:25:57;;;;;;;27.57;19.41;;;0.30;99.90;;;3.96;90.67;100141.47;1702648;74;24516;-75
2020/12/06 02:28:14;;;;;;;28.38;20.19;;;0.30;99.90;;;4.03;90.69;100139.08;1705298;75;24461;-74
2020/12/06 02:30:32;;;;;;;25.87;19.40;;;0.30;99.90;;;4.07;90.75;100140.03;1703721;75;24501;-75
2020/12/06 02:32:48;;;;;;;24.12;19.01;;;0.20;99.90;;;4.13;91.23;100133.73;1711151;74;24438;-75
2020/12/06 02:35:05;;;;;;;23.59;18.19;;;0.40;99.90;;;4.10;91.46;100138.81;1707332;74;24957;-75
2020/12/06 02:37:21;;;;;;;23.55;18.68;;;0.50;99.90;;;4.05;91.43;100142.57;1706930;74;24482;-76
2020/12/06 02:39:41;;;;;;;24.50;18.90;;;0.30;99.90;;;4.07;91.09;100139.63;1704918;74;24422;-74
2020/12/06 02:41:57;;;;;;;26.21;18.69;;;0.40;99.90;;;4.11;91.49;100136.72;1701328;74;24441;-76
2020/12/06 02:44:15;;;;;;;25.59;19.47;;;0.20;99.90;;;4.10;91.54;100142.68;1703692;75;24923;-76
2020/12/06 02:46:32;;;;;;;25.90;19.50;;;0.20;99.90;;;4.05;91.45;100146.44;1707233;74;25140;-75
2020/12/06 02:48:48;;;;;;;24.87;18.70;;;0.10;99.90;;;4.04;91.31;100145.11;1704128;75;24496;-77
2020/12/06 02:51:06;;;;;;;26.87;18.96;;;0.30;99.90;;;4.03;91.38;100154.53;1700380;74;24440;-74
2020/12/06 02:53:22;;;;;;;24.79;18.07;;;0.20;99.90;;;4.05;91.63;100142.98;1704362;74;24444;-74
2020/12/06 02:55:39;;;;;;;23.06;18.47;;;0.30;99.90;;;4.10;91.74;100134.55;1701660;75;24886;-75
2020/12/06 02:57:55;;;;;;;24.75;18.29;;;;;;;4.07;91.80;100129.73;1702832;74;24545;-73
2020/12/06 03:00:13;;;;;;;26.21;19.57;;;0.40;99.90;;;4.26;91.95;100114.77;1695487;75;24501;-75
2020/12/06 03:02:29;;;;;;;28.49;21.30;;;0.20;99.90;;;4.11;92.42;100104.08;1691389;75;24434;-74
2020/12/06 03:04:47;;;;;;;31.53;21.42;;;0.30;99.90;;;4.21;93.35;100089.30;1693108;75;24838;-75
2020/12/06 03:07:07;;;;;;;27.99;21.65;;;0.40;99.90;;;4.33;93.85;100095.17;1685902;75;24390;-76
2020/12/06 03:09:24;;;;;;;30.14;20.82;;;0.20;99.90;;;4.35;93.58;100095.64;1697816;75;24960;-76
2020/12/06 03:11:41;;;;;;;30.35;21.36;;;0.40;99.90;;;4.29;93.16;100092.05;1696286;75;24949;-73
2020/12/06 03:13:57;;;;;;;31.03;21.46;;;0.30;99.90;;;4.27;92.92;100102.33;1693347;75;24595;-75
2020/12/06 03:16:17;;;;;;;27.41;20.21;;;0.40;99.90;;;4.29;92.07;100109.68;1697130;75;24950;-75
2020/12/06 03:18:37;;;;;;;25.88;19.39;;;0.50;99.90;;;4.31;92.14;100109.72;1691043;75;24889;-76
2020/12/06 03:20:55;;;;;;;26.39;19.73;;;0.40;99.90;;;4.27;91.51;100120.36;1697085;75;24443;-74
2020/12/06 03:23:11;;;;;;;28.09;20.35;;;0.40;99.90;;;4.24;91.68;100122.87;1694701;75;24630;-74
2020/12/06 03:25:30;;;;;;;28.36;21.05;;;0.50;99.90;;;4.27;91.96;100119.07;1697088;75;24445;-75
2020/12/06 03:27:47;;;;;;;27.99;20.69;;;0.60;99.90;;;4.32;92.14;100130.36;1691843;75;24508;-75
2020/12/06 03:30:03;;;;;;;27.68;20.27;;;0.30;99.90;;;4.37;92.33;100136.50;1695128;75;24438;-77
2020/12/06 03:32:33;;;;;;;25.92;20.40;;;0.40;99.90;;;4.33;92.54;100132.09;1698200;75;24433;-75
2020/12/06 03:34:52;;;;;;;27.69;19.90;;;0.30;99.90;;;4.33;92.78;100130.81;1692830;75;24441;-74
2020/12/06 03:37:08;;;;;;;26.98;19.47;;;0.60;99.90;;;4.26;92.46;100123.78;1689313;75;24965;-76
2020/12/06 03:39:25;;;;;;;27.37;19.67;;;0.50;99.90;;;4.25;92.26;100125.04;1694387;75;24571;-75
2020/12/06 03:41:41;;;;;;;27.65;20.68;;;0.30;99.90;;;4.24;92.32;100127.14;1702233;75;24450;-75
2020/12/06 03:43:58;;;;;;;29.94;21.17;;;0.30;99.90;;;4.25;92.95;100123.75;1692978;75;24503;-75
2020/12/06 03:46:15;;;;;;;28.05;19.97;;;0.60;99.90;;;4.31;93.25;100111.89;1687798;75;24438;-75
2020/12/06 03:48:32;;;;;;;28.88;20.79;;;0.40;99.90;;;4.31;92.60;100108.02;1703226;75;24945;-76
2020/12/06 03:50:49;;;;;;;27.75;19.74;;;0.60;99.90;;;4.18;91.87;100105.98;1699477;75;24442;-76
2020/12/06 03:53:06;;;;;;;28.25;20.99;;;0.60;99.90;;;4.27;91.99;100108.77;1701018;75;24452;-75
2020/12/06 03:55:23;;;;;;;27.79;20.43;;;0.50;99.90;;;4.37;92.12;100104.70;1696413;74;24497;-76
2020/12/06 03:57:39;;;;;;;30.10;22.16;;;0.50;99.90;;;4.76;91.50;100110.73;1692418;75;24573;-75
2020/12/06 03:59:54;;;;;;;28.34;21.40;;;;;;;4.72;91.73;100108.06;1696624;75;24442;-76
2020/12/06 04:02:13;;;;;;;29.33;21.69;;;0.50;99.90;;;4.79;92.74;100104.35;1693421;75;24890;-77
2020/12/06 04:04:31;;;;;;;32.12;22.07;;;0.70;99.90;;;4.51;93.22;100106.77;1698786;75;25020;-76
2020/12/06 04:06:47;;;;;;;31.29;22.08;;;0.60;99.90;;;4.57;93.50;100109.88;1686317;75;24919;-75
2020/12/06 04:09:02;;;;;;;29.67;21.38;;;;;;;4.55;93.34;100109.84;1694851;75;24441;-75
2020/12/06 04:11:19;;;;;;;29.12;21.29;;;0.60;99.90;;;4.79;93.58;100111.24;1702622;75;24485;-75
2020/12/06 04:13:37;;;;;;;28.98;21.66;;;0.90;99.90;;;4.55;93.51;100114.16;1699172;75;24492;-75
2020/12/06 04:15:53;;;;;;;29.22;21.45;;;0.60;99.90;;;4.54;93.40;100118.42;1675948;75;24545;-76
2020/12/06 04:18:10;;;;;;;32.25;22.36;;;0.50;99.90;;;4.63;93.46;100122.48;1696097;75;24910;-75
2020/12/06 04:20:27;;;;;;;30.62;23.15;;;1.00;99.90;;;4.59;93.54;100124.97;1696939;75;25022;-77
2020/12/06 04:22:43;;;;;;;30.96;22.33;;;;;;;4.66;93.73;100132.87;1697498;75;24408;-75
2020/12/06 04:24:59;;;;;;;33.21;23.12;;;0.70;99.90;;;4.93;93.71;100132.63;1688408;75;24522;-75
2020/12/06 04:27:15;;;;;;;31.75;23.38;;;0.80;99.90;;;4.80;93.67;100128.03;1694294;75;24448;-75
2020/12/06 04:29:33;;;;;;;31.48;22.73;;;0.90;99.90;;;4.76;93.96;100121.49;1700873;75;25314;-76
2020/12/06 04:31:50;;;;;;;30.19;21.63;;;0.90;99.90;;;4.81;93.85;100119.86;1697895;75;24453;-75
2020/12/06 04:34:11;;;;;;;31.08;21.77;;;0.90;99.90;;;4.87;93.78;100121.30;1688940;75;24460;-75
2020/12/06 04:36:27;;;;;;;29.82;22.12;;;0.80;99.90;;;4.90;92.79;100122.66;1696121;75;24465;-75
2020/12/06 04:38:43;;;;;;;31.65;22.43;;;0.80;99.90;;;4.84;92.78;100118.22;1702983;75;24472;-76
2020/12/06 04:40:59;;;;;;;30.08;21.91;;;0.70;99.90;;;4.88;93.02;100115.30;1693844;75;24505;-76
2020/12/06 04:43:19;;;;;;;32.21;23.52;;;0.70;99.90;;;4.79;93.08;100109.95;1690327;75;24515;-75
2020/12/06 04:45:37;;;;;;;29.29;21.38;;;0.90;99.90;;;4.80;93.42;100109.98;1690826;75;24520;-75
2020/12/06 04:48:06;;;;;;;31.30;21.46;;;0.70;99.90;;;4.69;93.02;100104.57;1701239;75;24485;-75
2020/12/06 04:50:29;;;;;;;31.31;22.49;;;1.10;99.90;;;4.61;92.84;100115.16;1686628;75;24484;-75
2020/12/06 04:52:48;;;;;;;29.53;21.43;;;0.90;99.90;;;4.81;92.81;100115.58;1691776;75;24532;-75
2020/12/06 04:55:08;;;;;;;31.82;23.12;;;1.00;99.90;;;4.91;92.79;100114.95;1688738;75;24471;-76
2020/12/06 04:57:30;;;;;;;33.37;23.35;;;1.00;99.90;;;4.86;92.59;100110.52;1683856;75;25009;-76
2020/12/06 04:59:51;;;;;;;31.05;23.10;;;1.10;99.90;;;4.92;92.82;100109.35;1698387;75;24894;-75
2020/12/06 05:02:12;;;;;;;29.25;22.71;;;0.90;99.90;;;4.84;92.52;100114.80;1694981;75;24453;-75
2020/12/06 05:04:33;;;;;;;29.75;22.22;;;1.00;99.90;;;4.76;92.70;100110.73;1692736;75;24437;-76
2020/12/06 05:06:50;;;;;;;37.67;23.35;;;;;;;4.74;92.25;100112.44;1694605;75;24429;-76
2020/12/06 05:09:08;;;;;;;32.58;23.87;;;1.00;99.90;;;4.97;92.34;100109.03;1689040;75;24485;-75
2020/12/06 05:11:27;;;;;;;35.58;23.90;;;1.00;99.90;;;4.69;92.62;100111.46;1670958;75;24474;-75
2020/12/06 05:13:43;;;;;;;33.14;24.30;;;1.00;99.90;;;4.86;92.64;100105.36;1691016;75;25124;-75
2020/12/06 05:16:01;;;;;;;31.39;23.42;;;1.00;99.90;;;4.93;92.24;100110.70;1697209;75;24493;-75
2020/12/06 05:18:18;;;;;;;32.05;23.78;;;0.90;99.90;;;4.81;92.05;100110.83;1700115;75;25048;-75
2020/12/06 05:20:36;;;;;;;33.09;24.52;;;0.90;99.90;;;4.75;91.70;100119.73;1694215;75;24459;-76
2020/12/06 05:22:53;;;;;;;32.60;23.90;;;0.90;99.90;;;5.32;91.14;100108.04;1699776;75;24520;-76
2020/12/06 05:25:11;;;;;;;32.74;22.60;;;1.00;99.90;;;4.94;90.58;100111.14;1697292;75;24426;-75
2020/12/06 05:27:30;;;;;;;34.08;24.48;;;0.90;99.90;;;4.71;91.47;100117.94;1694852;75;24866;-76
2020/12/06 05:29:48;;;;;;;35.64;24.44;;;0.90;99.90;;;4.71;91.87;100121.36;1694129;75;24430;-75
2020/12/06 05:32:07;;;;;;;32.17;24.03;;;0.70;99.90;;;4.66;91.95;100116.11;1692513;75;24509;-74
2020/12/06 05:34:26;;;;;;;32.24;23.40;;;0.80;99.90;;;4.68;92.07;100114.45;1688226;75;24527;-77
2020/12/06 05:36:46;;;;;;;31.73;23.42;;;0.80;99.90;;;4.66;92.07;100107.09;1686756;75;25090;-74
2020/12/06 05:39:05;;;;;;;34.02;24.24;;;0.90;99.90;;;4.75;92.23;100105.55;1691560;75;24512;-75
2020/12/06 05:41:25;;;;;;;32.73;24.04;;;0.90;99.90;;;4.71;92.23;100093.00;1693147;75;24500;-74
2020/12/06 05:43:45;;;;;;;33.30;24.20;;;0.80;99.90;;;4.71;91.94;100095.58;1688882;75;24422;-75
2020/12/06 05:46:06;;;;;;;32.13;23.88;;;;;;;4.75;92.04;100092.66;1697016;75;24508;-76
2020/12/06 05:48:29;;;;;;;32.54;23.70;;;1.00;99.90;;;5.07;92.51;100087.75;1691294;75;24467;-76
2020/12/06 05:50:48;;;;;;;31.36;23.14;;;1.10;99.90;;;4.82;91.93;100081.20;1695073;75;24537;-78
2020/12/06 05:53:07;;;;;;;32.56;23.61;;;1.00;99.90;;;4.80;91.78;100079.04;1666569;75;24513;-76
2020/12/06 05:55:25;;;;;;;32.89;23.60;;;1.00;99.90;;;4.76;92.29;100095.27;1696022;75;24735;-75
2020/12/06 05:57:44;;;;;;;36.80;25.51;;;1.00;99.90;;;4.85;92.26;100102.34;1697125;75;24914;-75
2020/12/06 06:00:07;;;;;;;32.67;24.99;;;1.10;99.90;;;5.41;91.14;100096.59;1697909;75;24906;-75
2020/12/06 06:02:26;;;;;;;32.88;24.62;;;0.90;99.90;;;5.19;91.57;100097.02;1690327;75;24477;-76
2020/12/06 06:04:44;;;;;;;33.86;25.25;;;1.10;99.90;;;5.08;92.61;100095.94;1697015;74;24509;-76
2020/12/06 06:07:04;;;;;;;34.96;25.34;;;1.00;99.90;;;5.09;92.99;100100.28;1698107;75;24902;-76
2020/12/06 06:09:24;;;;;;;35.40;24.15;;;1.00;99.90;;;5.11;92.95;100095.58;1690745;75;24454;-75
2020/12/06 06:11:49;;;;;;;31.37;23.86;;;1.10;99.90;;;5.08;92.83;100089.48;1701345;75;24546;-75
2020/12/06 06:14:08;;;;;;;33.03;24.90;;;1.00;99.90;;;5.05;93.16;100083.86;1695424;75;24938;-75
2020/12/06 06:16:32;;;;;;;32.80;23.70;;;0.90;99.90;;;5.17;93.00;100081.95;1699572;75;24497;-75
2020/12/06 06:18:51;;;;;;;35.58;24.96;;;1.20;99.90;;;5.13;92.87;100077.14;1701109;75;24477;-75
2020/12/06 06:21:07;;;;;;;35.84;25.16;;;1.20;99.90;;;5.11;93.16;100080.10;1697525;75;24535;-74
2020/12/06 06:23:24;;;;;;;34.05;24.42;;;1.50;99.90;;;5.33;91.74;100081.37;1691525;75;24427;-75
2020/12/06 06:25:42;;;;;;;32.61;24.17;;;1.20;99.90;;;5.13;92.91;100076.27;1672807;75;24995;-76
2020/12/06 06:27:59;;;;;;;34.35;23.93;;;1.30;99.90;;;5.05;93.62;100068.38;1691508;75;24572;-76
2020/12/06 06:30:18;;;;;;;32.00;24.04;;;1.20;99.90;;;5.01;93.28;100079.45;1699317;75;24413;-74
2020/12/06 06:32:37;;;;;;;35.44;24.14;;;1.30;99.90;;;5.12;93.56;100076.67;1695934;75;24508;-74
2020/12/06 06:34:59;;;;;;;32.73;23.09;;;1.20;99.90;;;5.03;93.08;100080.36;1692752;75;24938;-77
2020/12/06 06:37:18;;;;;;;35.42;24.66;;;1.40;99.90;;;5.03;93.01;100076.91;1695219;75;24448;-75
2020/12/06 06:39:40;;;;;;;35.87;24.76;;;1.20;99.90;;;5.02;93.70;100073.48;1687801;75;24433;-75
2020/12/06 06:42:07;;;;;;;35.71;26.01;;;1.50;99.90;;;5.12;93.54;100073.24;1687212;75;25015;-76
2020/12/06 06:44:25;;;;;;;37.37;25.53;;;1.30;99.90;;;5.22;93.75;100072.56;1691661;75;24416;-74
2020/12/06 06:46:44;;;;;;;36.57;24.65;;;1.30;99.90;;;5.88;91.30;100068.67;1695777;75;24472;-75
2020/12/06 06:49:04;;;;;;;37.44;25.26;;;1.40;99.90;;;5.42;92.48;100069.95;1692264;75;24851;-78
2020/12/06 06:51:24;;;;;;;35.39;24.14;;;1.30;99.90;;;5.26;93.35;100072.67;1689976;75;24933;-76
2020/12/06 06:53:44;;;;;;;36.40;25.07;;;1.30;99.90;;;5.22;93.41;100069.56;1693443;75;24584;-75
2020/12/06 06:56:02;;;;;;;34.24;24.43;;;1.50;99.90;;;5.26;93.84;100075.67;1694474;75;24438;-75
2020/12/06 06:58:24;;;;;;;35.75;25.09;;;1.40;99.90;;;5.28;93.57;100075.28;1695261;75;24453;-75
2020/12/06 07:00:41;;;;;;;33.68;24.70;;;1.20;99.90;;;5.36;93.87;100078.88;1698005;75;24512;-75
2020/12/06 07:02:57;;;;;;;35.80;24.44;;;1.20;99.90;;;5.35;93.66;100079.70;1685104;75;24445;-75
2020/12/06 07:05:26;;;;;;;34.22;24.58;;;1.60;99.90;;;5.39;93.44;100081.52;1700967;75;24464;-75
2020/12/06 07:07:50;;;;;;;34.33;24.00;;;1.40;99.90;;;5.36;93.20;100081.47;1707572;74;24485;-77
2020/12/06 07:10:09;;;;;;;35.76;25.38;;;1.40;99.90;;;5.33;93.49;100081.37;1704165;74;24595;-75
2020/12/06 07:12:26;;;;;;;39.73;25.31;;;1.50;99.90;;;5.34;93.18;100077.53;1705899;74;24491;-76
2020/12/06 07:14:44;;;;;;;38.37;25.14;;;1.50;99.90;;;5.37;93.11;100071.58;1707066;74;24878;-75
2020/12/06 07:17:00;;;;;;;38.85;24.54;;;1.30;99.90;;;5.35;92.91;100068.09;1704163;74;24511;-75
2020/12/06 07:19:17;;;;;;;38.85;24.96;;;1.50;99.90;;;5.25;92.60;100056.72;1704701;74;24886;-76
2020/12/06 07:21:36;;;;;;;36.92;25.85;;;1.40;99.90;;;5.30;92.69;100058.97;1700428;74;24474;-75
2020/12/06 07:23:57;;;;;;;38.36;25.97;;;1.30;99.90;;;5.32;93.47;100064.16;1704099;74;24494;-76
2020/12/06 07:26:15;;;;;;;39.20;26.01;;;1.40;99.90;;;5.20;93.08;100075.11;1701107;75;24511;-74
2020/12/06 07:28:31;;;;;;;42.16;26.61;;;1.50;99.90;;;5.30;93.83;100081.32;1705746;74;24519;-74
2020/12/06 07:30:50;;;;;;;41.05;26.39;;;1.50;99.90;;;5.30;94.20;100076.16;1697686;74;24878;-75
2020/12/06 07:33:09;;;;;;;41.73;26.87;;;1.30;99.90;;;5.33;94.52;100076.21;1703662;74;24398;-74
2020/12/06 07:35:25;;;;;;;44.47;27.72;;;1.50;99.90;;;5.29;94.56;100066.28;1712161;74;24441;-75
2020/12/06 07:37:45;;;;;;;39.92;26.48;;;;;;;5.30;94.09;100061.55;1693626;74;24423;-76
2020/12/06 07:40:07;;;;;;;40.22;26.15;;;1.70;99.90;;;5.58;93.77;100067.66;1709983;74;24434;-75
2020/12/06 07:42:25;;;;;;;39.47;25.00;;;1.40;99.90;;;5.33;93.55;100068.06;1705859;75;24980;-75
2020/12/06 07:44:50;;;;;;;44.61;27.95;;;1.60;99.90;;;5.36;93.68;100076.30;1702898;74;24438;-76
2020/12/06 07:47:08;;;;;;;39.50;26.72;;;1.40;99.90;;;5.56;94.05;100084.86;1704914;75;24444;-77
2020/12/06 07:49:25;;;;;;;38.34;25.94;;;1.80;99.90;;;5.45;93.84;100086.38;1705531;75;24433;-75
2020/12/06 07:51:44;;;;;;;42.11;27.30;;;1.70;99.90;;;5.53;93.93;100085.22;1705504;75;24440;-76
2020/12/06 07:54:04;;;;;;;41.36;26.65;;;1.80;99.90;;;5.52;93.93;100087.33;1702235;75;24433;-76
2020/12/06 07:56:25;;;;;;;39.23;26.43;;;1.70;99.90;;;5.53;94.00;100078.77;1693388;74;24911;-76
2020/12/06 07:58:47;;;;;;;39.95;26.06;;;1.70;99.90;;;5.44;94.13;100078.16;1702369;75;24445;-75
2020/12/06 08:01:03;;;;;;;41.50;27.59;;;1.60;99.90;;;5.44;94.10;100075.58;1709217;75;24372;-75
2020/12/06 08:03:19;;;;;;;37.99;26.37;;;1.80;99.90;;;5.78;93.06;100068.90;1706819;74;24496;-77
2020/12/06 08:05:39;;;;;;;41.82;27.47;;;1.80;99.90;;;5.59;93.74;100072.00;1699108;74;24496;-75
2020/12/06 08:08:00;;;;;;;39.53;27.41;;;2.00;99.90;;;5.53;94.17;100067.15;1695706;75;24487;-75
2020/12/06 08:10:20;;;;;;;40.52;24.94;;;1.90;99.90;;;5.65;94.32;100063.48;1706041;75;25052;-75
2020/12/06 08:12:44;;;;;;;36.46;25.45;;;1.70;99.90;;;5.56;93.80;100071.07;1696940;74;24936;-75
2020/12/06 08:15:06;;;;;;;39.40;26.08;;;1.70;99.90;;;5.55;94.26;100081.81;1696769;75;24444;-75
2020/12/06 08:17:22;;;;;;;37.78;26.15;;;2.00;99.90;;;5.79;94.34;100083.54;1697811;75;24564;-76
2020/12/06 08:19:42;;;;;;;40.44;25.74;;;1.80;99.90;;;5.76;93.88;100094.23;1704319;74;24901;-76
2020/12/06 08:22:02;;;;;;;38.50;26.40;;;2.00;99.90;;;5.80;94.15;100098.63;1710822;75;24789;-76
2020/12/06 08:26:57;;;;;;;39.81;26.01;;;2.20;99.90;;;6.54;91.44;100095.56;1729655;72;25366;-76
2020/12/06 08:29:14;;;;;;;39.77;27.50;;;2.20;99.90;;;5.88;93.74;100111.30;1694723;75;25186;-76
2020/12/06 08:31:30;;;;;;;39.60;26.31;;;2.10;99.90;;;5.81;93.75;100106.81;1707737;75;24440;-75
2020/12/06 08:33:46;;;;;;;37.55;25.29;;;2.00;99.90;;;5.96;94.00;100107.09;1694942;75;25136;-75
2020/12/06 08:36:06;;;;;;;37.71;25.48;;;2.30;99.90;;;5.79;93.26;100102.91;1697808;74;24515;-76
2020/12/06 08:38:25;;;;;;;36.00;24.99;;;2.30;99.90;;;5.80;93.37;100100.77;1700264;75;24907;-75
2020/12/06 08:40:43;;;;;;;40.73;25.89;;;2.10;99.90;;;5.84;93.84;100095.27;1694035;75;24870;-75
2020/12/06 08:43:03;;;;;;;38.75;26.47;;;2.20;99.90;;;6.00;94.20;100101.16;1697542;74;24452;-77
2020/12/06 08:45:28;;;;;;;39.39;26.38;;;2.00;99.90;;;6.15;93.37;100111.73;1692483;75;24452;-77
2020/12/06 08:47:46;;;;;;;38.40;25.57;;;2.30;99.90;;;6.05;93.22;100115.03;1692595;75;24531;-77
2020/12/06 08:50:13;;;;;;;36.92;25.93;;;2.20;99.90;;;5.99;93.99;100109.77;1697284;75;24503;-77
2020/12/06 08:52:32;;;;;;;39.48;25.40;;;2.40;99.90;;;6.54;92.12;100096.84;1674836;75;24469;-77
2020/12/06 08:54:50;;;;;;;36.22;24.58;;;2.50;99.90;;;6.26;92.09;100099.84;1691953;75;24496;-76
2020/12/06 08:57:11;;;;;;;39.62;26.72;;;2.40;99.90;;;5.99;93.45;100096.84;1695847;75;24479;-76
2020/12/06 08:59:31;;;;;;;38.13;25.67;;;2.20;99.90;;;6.07;94.06;100099.09;1700921;75;24476;-75
2020/12/06 09:01:53;;;;;;;38.19;25.70;;;2.20;99.90;;;6.07;93.71;100102.56;1694415;75;24496;-77
2020/12/06 09:04:10;;;;;;;38.58;26.07;;;2.40;99.90;;;6.11;93.82;100100.91;1695504;75;24442;-76
2020/12/06 09:06:27;;;;;;;38.13;25.50;;;2.50;99.90;;;6.13;93.94;100111.70;1693822;75;24819;-77
2020/12/06 09:08:49;;;;;;;38.43;25.52;;;2.40;99.90;;;6.11;94.21;100109.95;1693174;75;24417;-77
2020/12/06 09:11:05;;;;;;;35.86;24.50;;;2.70;99.90;;;6.08;93.55;100110.78;1696386;75;24877;-75
2020/12/06 09:13:21;;;;;;;36.40;24.98;;;2.80;99.90;;;6.18;94.37;100103.17;1694147;74;24429;-76
2020/12/06 09:15:38;;;;;;;35.40;24.08;;;2.40;99.90;;;6.16;94.13;100098.83;1703191;75;25528;-75
2020/12/06 09:17:53;;;;;;;37.80;25.17;;;;;;;6.04;94.59;100110.68;1696636;75;24571;-79
2020/12/06 09:20:11;;;;;;;36.78;25.47;;;2.90;99.90;;;6.48;95.21;100116.58;1703772;75;24530;-76
2020/12/06 09:22:28;;;;;;;35.19;23.97;;;2.70;99.90;;;6.22;94.65;100115.28;1693630;73;24465;-76
2020/12/06 09:24:51;;;;;;;35.39;24.04;;;2.60;99.90;;;6.40;94.25;100113.00;1697458;74;24605;-77
2020/12/06 09:27:08;;;;;;;36.28;24.31;;;2.80;99.90;;;6.50;94.83;100109.69;1700278;74;24469;-77
2020/12/06 09:29:24;;;;;;;37.64;25.70;;;3.00;99.90;;;6.78;94.17;100090.70;1704696;74;24765;-77
2020/12/06 09:31:41;;;;;;;38.95;26.22;;;3.10;99.90;;;6.85;94.61;100078.72;1700518;74;24853;-76
2020/12/06 09:34:01;;;;;;;36.66;25.61;;;3.40;99.90;;;6.99;95.02;100070.70;1702120;74;25015;-76
2020/12/06 09:36:18;;;;;;;34.88;24.85;;;3.50;99.90;;;7.06;94.71;100068.23;1704289;74;24861;-75
2020/12/06 09:38:38;;;;;;;33.01;24.08;;;3.60;99.90;;;7.23;95.98;100081.35;1707983;74;24972;-78
2020/12/06 09:40:56;;;;;;;31.82;23.22;;;3.70;99.90;;;7.11;96.08;100091.58;1702689;74;24487;-75